DAL260 KMSP-BIKF
Flight info
| Callsign | DAL260 |
|---|---|
| Flight time | N/A |
| Altitude | 33000 |
| Route | DLH DCT 4830N09000W 5430N08000W 5830N07000W DCT MIBNO DCT MAXAR DCT 63N050W 63N040W 64N030W DCT GISTU DCT GIRUG GIRUG4N |
| Aircraft | B738/M-SDE2E3FGHIRWXY/LB1 |
Departure
| Time | 2026-05-04 22:08 |
|---|---|
| Airport | Minneapolis–Saint Paul International Airport / Wold–Chamberlain Field (KMSP) |
Arrival
| Time | N/A |
|---|---|
| Airport | Keflavik International Airport (BIKF) |
| Time | Latitude | Longitude | Altitude | Speed | Heading |
|---|---|---|---|---|---|
| 2026-05-04 21:23 | 44.88330 | -93.21635 | 824 ft | 0 kts | 51° |
| 2026-05-04 21:26 | 44.88329 | -93.21635 | 824 ft | 0 kts | 51° |
| 2026-05-04 21:28 | 44.88329 | -93.21636 | 824 ft | 0 kts | 51° |
| 2026-05-04 21:37 | 44.88329 | -93.21637 | 824 ft | 0 kts | 51° |
| 2026-05-04 21:42 | 44.88328 | -93.21637 | 824 ft | 0 kts | 51° |
| 2026-05-04 21:45 | 44.88328 | -93.21638 | 824 ft | 0 kts | 51° |
| 2026-05-04 21:54 | 44.88328 | -93.21639 | 824 ft | 0 kts | 51° |
| 2026-05-04 21:56 | 44.88327 | -93.21639 | 824 ft | 0 kts | 51° |
| 2026-05-04 21:57 | 44.88318 | -93.21657 | 822 ft | 4 kts | 54° |
| 2026-05-04 21:57 | 44.88301 | -93.21686 | 822 ft | 4 kts | 47° |
| 2026-05-04 21:58 | 44.88284 | -93.21716 | 824 ft | 4 kts | 62° |
| 2026-05-04 21:58 | 44.88276 | -93.21750 | 824 ft | 4 kts | 96° |
| 2026-05-04 21:58 | 44.88280 | -93.21772 | 819 ft | 1 kts | 121° |
| 2026-05-04 21:58 | 44.88282 | -93.21775 | 819 ft | 2 kts | 121° |
| 2026-05-04 22:00 | 44.88273 | -93.21755 | 821 ft | 5 kts | 120° |
| 2026-05-04 22:01 | 44.88247 | -93.21696 | 837 ft | 8 kts | 124° |
| 2026-05-04 22:01 | 44.88218 | -93.21632 | 824 ft | 8 kts | 121° |
| 2026-05-04 22:01 | 44.88191 | -93.21568 | 824 ft | 8 kts | 121° |
| 2026-05-04 22:01 | 44.88152 | -93.21500 | 824 ft | 10 kts | 142° |
| 2026-05-04 22:02 | 44.88085 | -93.21450 | 824 ft | 12 kts | 145° |
| 2026-05-04 22:02 | 44.88032 | -93.21352 | 824 ft | 13 kts | 121° |
| 2026-05-04 22:02 | 44.88012 | -93.21220 | 824 ft | 14 kts | 90° |
| 2026-05-04 22:02 | 44.87985 | -93.21088 | 824 ft | 14 kts | 121° |
| 2026-05-04 22:03 | 44.87936 | -93.20974 | 823 ft | 13 kts | 121° |
| 2026-05-04 22:03 | 44.87888 | -93.20864 | 821 ft | 13 kts | 120° |
| 2026-05-04 22:03 | 44.87843 | -93.20758 | 824 ft | 13 kts | 122° |
| 2026-05-04 22:03 | 44.87794 | -93.20656 | 822 ft | 12 kts | 126° |
| 2026-05-04 22:04 | 44.87745 | -93.20560 | 825 ft | 12 kts | 123° |
| 2026-05-04 22:04 | 44.87704 | -93.20460 | 824 ft | 12 kts | 122° |
| 2026-05-04 22:04 | 44.87662 | -93.20364 | 824 ft | 11 kts | 121° |
| 2026-05-04 22:04 | 44.87622 | -93.20271 | 822 ft | 11 kts | 121° |
| 2026-05-04 22:05 | 44.87584 | -93.20181 | 824 ft | 11 kts | 120° |
| 2026-05-04 22:05 | 44.87544 | -93.20092 | 824 ft | 10 kts | 122° |
| 2026-05-04 22:05 | 44.87495 | -93.20026 | 825 ft | 10 kts | 169° |
| 2026-05-04 22:05 | 44.87435 | -93.20068 | 824 ft | 10 kts | 212° |
| 2026-05-04 22:06 | 44.87380 | -93.20118 | 824 ft | 6 kts | 233° |
| 2026-05-04 22:06 | 44.87375 | -93.20165 | 826 ft | 5 kts | 278° |
| 2026-05-04 22:06 | 44.87384 | -93.20196 | 825 ft | 0 kts | 300° |
| 2026-05-04 22:06 | 44.87390 | -93.20209 | 822 ft | 6 kts | 300° |
| 2026-05-04 22:07 | 44.87468 | -93.20390 | 823 ft | 51 kts | 301° |
| 2026-05-04 22:07 | 44.87768 | -93.21084 | 826 ft | 113 kts | 301° |
| 2026-05-04 22:07 | 44.88268 | -93.22238 | 858 ft | 162 kts | 301° |
| 2026-05-04 22:07 | 44.88872 | -93.23669 | 1383 ft | 175 kts | 300° |
| 2026-05-04 22:08 | 44.89511 | -93.25165 | 2157 ft | 176 kts | 301° |
| 2026-05-04 22:08 | 44.90175 | -93.26718 | 2469 ft | 193 kts | 301° |
| 2026-05-04 22:08 | 44.90859 | -93.28334 | 3011 ft | 192 kts | 301° |
| 2026-05-04 22:08 | 44.91555 | -93.29977 | 3425 ft | 199 kts | 301° |
| 2026-05-04 22:09 | 44.92287 | -93.31706 | 3740 ft | 211 kts | 301° |
| 2026-05-04 22:09 | 44.93254 | -93.33273 | 4274 ft | 216 kts | 326° |
| 2026-05-04 22:09 | 44.94723 | -93.33863 | 4906 ft | 229 kts | 358° |
| 2026-05-04 22:09 | 44.96263 | -93.33197 | 5717 ft | 239 kts | 25° |
| 2026-05-04 22:10 | 44.97678 | -93.31898 | 6391 ft | 244 kts | 24° |
| 2026-05-04 22:10 | 44.99237 | -93.30855 | 6657 ft | 261 kts | 15° |
| 2026-05-04 22:10 | 45.00971 | -93.29913 | 7030 ft | 271 kts | 15° |
| 2026-05-04 22:10 | 45.02735 | -93.28932 | 7000 ft | 272 kts | 15° |
| 2026-05-04 22:11 | 45.04486 | -93.27935 | 7025 ft | 272 kts | 15° |
| 2026-05-04 22:11 | 45.06240 | -93.26926 | 7034 ft | 272 kts | 16° |
| 2026-05-04 22:11 | 45.07992 | -93.25907 | 7027 ft | 272 kts | 16° |
| 2026-05-04 22:11 | 45.09748 | -93.24880 | 7229 ft | 274 kts | 16° |
| 2026-05-04 22:12 | 45.11521 | -93.23839 | 7874 ft | 277 kts | 15° |
| 2026-05-04 22:12 | 45.13303 | -93.22788 | 8575 ft | 278 kts | 14° |
| 2026-05-04 22:12 | 45.15105 | -93.21725 | 9243 ft | 283 kts | 14° |
| 2026-05-04 22:12 | 45.16934 | -93.20643 | 9854 ft | 287 kts | 13° |
| 2026-05-04 22:13 | 45.18799 | -93.19539 | 10311 ft | 296 kts | 13° |
| 2026-05-04 22:13 | 45.20770 | -93.18382 | 10457 ft | 316 kts | 14° |
| 2026-05-04 22:13 | 45.22836 | -93.17166 | 10613 ft | 336 kts | 14° |
| 2026-05-04 22:13 | 45.25055 | -93.15854 | 10755 ft | 355 kts | 14° |
| 2026-05-04 22:14 | 45.27390 | -93.14466 | 10909 ft | 372 kts | 15° |
| 2026-05-04 22:14 | 45.29813 | -93.13016 | 11298 ft | 381 kts | 15° |
| 2026-05-04 22:14 | 45.32268 | -93.11537 | 11809 ft | 386 kts | 15° |
| 2026-05-04 22:14 | 45.34759 | -93.10034 | 12360 ft | 390 kts | 15° |
| 2026-05-04 22:15 | 45.37265 | -93.08521 | 12973 ft | 394 kts | 15° |
| 2026-05-04 22:15 | 45.39816 | -93.06985 | 13405 ft | 401 kts | 15° |
| 2026-05-04 22:15 | 45.42405 | -93.05428 | 13883 ft | 405 kts | 15° |
| 2026-05-04 22:15 | 45.45011 | -93.03858 | 14407 ft | 408 kts | 14° |
| 2026-05-04 22:16 | 45.47635 | -93.02277 | 14879 ft | 412 kts | 14° |
| 2026-05-04 22:16 | 45.50253 | -93.00699 | 15347 ft | 416 kts | 14° |